createdAt,value
2019-05-23T00:00:19.405Z,21.20
2019-05-23T00:03:23.574Z,20.13
2019-05-23T00:06:27.071Z,21.33
2019-05-23T00:09:29.419Z,18.70
2019-05-23T00:12:37.400Z,21.20
2019-05-23T00:15:39.709Z,20.17
2019-05-23T00:18:42.175Z,22.33
2019-05-23T00:21:44.532Z,20.43
2019-05-23T00:24:47.511Z,23.87
2019-05-23T00:27:49.821Z,22.37
2019-05-23T00:30:55.752Z,24.60
2019-05-23T00:33:58.065Z,21.90
2019-05-23T00:37:00.348Z,25.83
2019-05-23T00:40:02.669Z,25.27
2019-05-23T00:43:04.980Z,24.93
2019-05-23T00:46:07.262Z,23.20
2019-05-23T00:49:09.615Z,23.07
2019-05-23T00:52:11.914Z,24.77
2019-05-23T00:55:14.238Z,26.43
2019-05-23T00:58:16.725Z,22.80
2019-05-23T01:01:18.973Z,25.00
2019-05-23T01:04:21.301Z,23.93
2019-05-23T01:07:23.580Z,24.50
2019-05-23T01:10:25.869Z,26.33
2019-05-23T01:13:28.341Z,22.97
2019-05-23T01:16:30.642Z,24.63
2019-05-23T01:19:32.895Z,21.07
2019-05-23T01:22:35.204Z,23.50
2019-05-23T01:25:37.480Z,22.23
2019-05-23T01:28:39.924Z,24.33
2019-05-23T01:31:42.311Z,23.07
2019-05-23T01:34:44.608Z,22.77
2019-05-23T01:37:47.171Z,21.40
2019-05-23T01:40:49.524Z,23.03
2019-05-23T01:43:52.381Z,23.30
2019-05-23T01:46:54.780Z,24.60
2019-05-23T01:49:57.320Z,27.93
2019-05-23T01:52:59.579Z,26.03
2019-05-23T01:56:01.902Z,30.33
2019-05-23T01:59:04.297Z,29.90
2019-05-23T02:02:06.592Z,27.10
2019-05-23T02:05:09.001Z,24.50
2019-05-23T02:08:11.358Z,24.00
2019-05-23T02:11:13.685Z,24.63
2019-05-23T02:14:15.989Z,24.07
2019-05-23T02:17:18.271Z,27.90
2019-05-23T02:20:20.563Z,25.73
2019-05-23T02:23:22.851Z,25.77
2019-05-23T02:26:25.148Z,25.47
2019-05-23T02:29:27.485Z,25.13
2019-05-23T02:32:29.772Z,25.33
2019-05-23T02:35:32.056Z,24.13
2019-05-23T02:38:42.697Z,24.73
2019-05-23T02:41:52.356Z,24.13
2019-05-23T02:44:54.732Z,26.63
2019-05-23T02:47:57.042Z,25.13
2019-05-23T02:50:59.933Z,25.63
2019-05-23T02:54:02.280Z,27.43
2019-05-23T02:57:04.574Z,26.23
2019-05-23T03:00:20.836Z,23.63
2019-05-23T03:03:24.360Z,24.80
2019-05-23T03:06:26.646Z,24.53
2019-05-23T03:09:31.593Z,27.33
2019-05-23T03:12:33.966Z,24.40
2019-05-23T03:15:36.272Z,26.03
2019-05-23T03:18:39.898Z,25.80
2019-05-23T03:21:42.243Z,24.97
2019-05-23T03:24:44.504Z,25.77
2019-05-23T03:27:46.871Z,24.10
2019-05-23T03:30:49.670Z,20.43
2019-05-23T03:33:52.205Z,24.30
2019-05-23T03:36:54.461Z,22.47
2019-05-23T03:39:56.756Z,22.93
2019-05-23T03:42:59.041Z,26.37
2019-05-23T03:46:02.944Z,25.03
2019-05-23T03:49:05.566Z,22.23
2019-05-23T03:52:07.904Z,23.00
2019-05-23T03:55:10.212Z,23.90
2019-05-23T03:58:12.535Z,23.77
2019-05-23T04:01:15.650Z,23.53
2019-05-23T04:04:17.964Z,24.97
2019-05-23T04:07:20.264Z,26.03
2019-05-23T04:10:22.614Z,25.90
2019-05-23T04:13:24.916Z,24.13
2019-05-23T04:16:30.417Z,25.27
2019-05-23T04:19:29.551Z,27.90
2019-05-23T04:22:31.868Z,25.23
2019-05-23T04:25:34.129Z,27.83
2019-05-23T04:28:36.443Z,24.67
2019-05-23T04:31:39.045Z,23.53
2019-05-23T04:34:41.311Z,24.93
2019-05-23T04:37:43.565Z,27.90
2019-05-23T04:40:45.831Z,26.23
2019-05-23T04:43:48.149Z,28.97
2019-05-23T04:46:50.419Z,33.60
2019-05-23T04:49:52.744Z,30.73
2019-05-23T04:52:55.250Z,34.00
2019-05-23T04:55:57.864Z,37.87
2019-05-23T04:59:00.504Z,31.40
2019-05-23T05:02:02.844Z,31.80
2019-05-23T05:05:05.186Z,34.00
2019-05-23T05:08:07.475Z,32.90
2019-05-23T05:11:09.721Z,30.63
2019-05-23T05:14:12.023Z,34.07
2019-05-23T05:17:14.273Z,34.07
2019-05-23T05:20:16.570Z,30.60
2019-05-23T05:23:18.889Z,33.33
2019-05-23T05:26:21.267Z,29.50
2019-05-23T05:29:23.590Z,30.00
2019-05-23T05:32:42.887Z,27.10
2019-05-23T05:35:29.376Z,26.10
2019-05-23T05:38:31.767Z,25.07
2019-05-23T05:41:34.009Z,22.47
2019-05-23T05:44:36.307Z,23.30
2019-05-23T05:47:38.694Z,20.80
2019-05-23T05:50:40.935Z,22.77
2019-05-23T05:53:43.253Z,24.33
2019-05-23T05:56:45.516Z,27.50
2019-05-23T05:59:47.834Z,26.77
2019-05-23T06:03:03.793Z,29.07
2019-05-23T06:06:00.785Z,25.00
2019-05-23T06:09:07.769Z,27.73
2019-05-23T06:12:10.088Z,24.47
2019-05-23T06:15:12.465Z,27.80
2019-05-23T06:18:14.716Z,24.23
2019-05-23T06:21:20.565Z,24.77
2019-05-23T06:24:39.659Z,27.13
2019-05-23T06:27:25.218Z,26.93
2019-05-23T06:30:27.526Z,25.17
2019-05-23T06:33:30.562Z,26.73
2019-05-23T06:36:32.887Z,26.70
2019-05-23T06:39:35.147Z,26.40
2019-05-23T06:42:37.505Z,26.20
2019-05-23T06:45:40.391Z,28.00
2019-05-23T06:48:45.688Z,25.90
2019-05-23T06:51:45.059Z,27.20
2019-05-23T06:54:47.305Z,24.77
2019-05-23T06:57:49.590Z,25.57
2019-05-23T07:00:52.050Z,29.03
2019-05-23T07:03:54.308Z,29.40
2019-05-23T07:06:56.654Z,23.60
2019-05-23T07:09:58.961Z,22.77
2019-05-23T07:13:01.274Z,20.27
2019-05-23T07:16:03.680Z,23.87
2019-05-23T07:19:05.960Z,24.43
2019-05-23T07:22:08.676Z,21.80
2019-05-23T07:25:11.002Z,22.47
2019-05-23T07:28:13.346Z,21.67
2019-05-23T07:31:15.658Z,20.13
2019-05-23T07:34:18.053Z,19.33
2019-05-23T07:37:20.445Z,17.93
2019-05-23T07:40:23.064Z,16.23
2019-05-23T07:43:25.335Z,16.93
2019-05-23T07:46:27.643Z,15.77
2019-05-23T07:49:29.913Z,14.63
2019-05-23T07:52:32.228Z,11.10
2019-05-23T07:55:37.328Z,9.77
2019-05-23T07:58:39.703Z,12.77
2019-05-23T08:01:43.273Z,10.37
2019-05-23T08:04:45.536Z,13.53
2019-05-23T08:07:48.054Z,11.67
2019-05-23T08:10:50.119Z,12.73
2019-05-23T08:13:52.450Z,14.77
2019-05-23T08:16:54.709Z,11.50
2019-05-23T08:19:56.971Z,18.53
2019-05-23T08:22:59.253Z,15.57
2019-05-23T08:26:01.543Z,13.67
2019-05-23T08:29:24.674Z,14.43
2019-05-23T08:32:06.550Z,12.77
2019-05-23T08:35:08.930Z,12.80
2019-05-23T08:38:11.227Z,10.27
2019-05-23T08:41:13.714Z,12.00
2019-05-23T08:44:15.943Z,15.53
2019-05-23T08:47:18.243Z,12.13
2019-05-23T08:50:20.497Z,10.27
2019-05-23T08:53:22.833Z,12.03
2019-05-23T08:56:25.135Z,10.97
2019-05-23T08:59:27.429Z,13.17
2019-05-23T09:02:29.786Z,13.20
2019-05-23T09:05:32.127Z,10.50
2019-05-23T09:08:34.462Z,13.20
2019-05-23T09:11:37.403Z,14.93
2019-05-23T09:14:39.676Z,10.07
2019-05-23T09:17:52.177Z,12.87
2019-05-23T09:20:44.277Z,11.43
2019-05-23T09:23:46.813Z,11.10
2019-05-23T09:26:49.246Z,13.03
2019-05-23T09:29:51.640Z,11.57
2019-05-23T09:32:53.973Z,9.17
2019-05-23T09:35:56.381Z,10.53
2019-05-23T09:38:58.724Z,10.80
2019-05-23T09:42:01.005Z,11.03
2019-05-23T09:45:03.521Z,12.63
2019-05-23T09:48:05.835Z,12.53
2019-05-23T09:51:08.120Z,10.33
2019-05-23T09:54:10.457Z,11.37
2019-05-23T09:57:12.715Z,12.80
2019-05-23T10:00:15.139Z,9.03
2019-05-23T10:03:17.502Z,9.60
2019-05-23T10:06:19.732Z,9.63
2019-05-23T10:09:22.069Z,11.23
2019-05-23T10:12:24.355Z,12.47
2019-05-23T10:15:32.250Z,12.13
2019-05-23T10:18:34.530Z,10.40
2019-05-23T10:21:36.818Z,10.53
2019-05-23T10:24:39.077Z,10.43
2019-05-23T10:27:41.432Z,11.67
2019-05-23T10:30:43.779Z,10.20
2019-05-23T10:33:46.041Z,11.17
2019-05-23T10:36:48.293Z,10.67
2019-05-23T10:39:51.666Z,11.27
2019-05-23T10:42:54.244Z,10.97
2019-05-23T10:45:56.556Z,10.80
2019-05-23T10:48:58.867Z,11.67
2019-05-23T10:52:01.157Z,9.60
2019-05-23T10:55:03.501Z,9.93
2019-05-23T10:58:05.813Z,9.03
2019-05-23T11:01:08.112Z,11.80
2019-05-23T11:04:10.412Z,12.07
2019-05-23T11:07:12.816Z,9.33
2019-05-23T11:10:15.163Z,11.90
2019-05-23T11:13:17.498Z,10.87
2019-05-23T11:16:19.817Z,10.67
2019-05-23T11:19:22.108Z,8.47
2019-05-23T11:22:24.364Z,11.43
2019-05-23T11:25:26.754Z,9.77
2019-05-23T11:28:29.111Z,12.30
2019-05-23T11:31:31.419Z,9.33
2019-05-23T11:34:33.755Z,11.37
2019-05-23T11:37:36.163Z,7.70
2019-05-23T11:40:38.435Z,9.73
2019-05-23T11:43:40.796Z,7.73
2019-05-23T11:46:43.107Z,12.83
2019-05-23T11:49:45.888Z,8.97
2019-05-23T11:52:47.862Z,8.57
2019-05-23T11:55:54.285Z,10.50
2019-05-23T11:58:52.714Z,6.43
2019-05-23T12:02:02.453Z,8.13
2019-05-23T12:05:07.366Z,8.63
2019-05-23T12:08:09.687Z,7.67
2019-05-23T12:11:12.077Z,10.20
2019-05-23T12:14:14.323Z,8.43
2019-05-23T12:17:16.632Z,8.57
2019-05-23T12:20:18.960Z,9.40
2019-05-23T12:23:21.251Z,10.87
2019-05-23T12:26:23.508Z,10.67
2019-05-23T12:29:25.836Z,7.17
2019-05-23T12:32:28.127Z,9.77
2019-05-23T12:35:30.499Z,7.40
2019-05-23T12:38:32.748Z,8.50
2019-05-23T12:41:35.051Z,5.73
2019-05-23T12:44:37.313Z,7.50
2019-05-23T12:47:44.752Z,8.30
2019-05-23T12:50:47.100Z,7.73
2019-05-23T12:53:49.406Z,7.00
2019-05-23T12:56:51.744Z,7.70
2019-05-23T12:59:54.116Z,6.57
2019-05-23T13:02:56.454Z,7.97
2019-05-23T13:05:58.780Z,7.77
2019-05-23T13:09:01.031Z,8.00
2019-05-23T13:12:03.463Z,6.07
2019-05-23T13:15:05.768Z,10.23
2019-05-23T13:18:08.063Z,9.57
2019-05-23T13:21:10.380Z,9.80
2019-05-23T13:24:12.657Z,10.17
2019-05-23T13:27:15.011Z,8.43
2019-05-23T13:30:17.295Z,7.50
2019-05-23T13:33:19.554Z,7.37
2019-05-23T13:36:21.861Z,9.07
2019-05-23T13:39:24.105Z,6.63
2019-05-23T13:42:26.490Z,7.03
2019-05-23T13:45:28.818Z,12.57
2019-05-23T13:48:31.147Z,9.20
2019-05-23T13:51:33.490Z,7.83
2019-05-23T13:54:36.920Z,9.33
2019-05-23T13:57:38.142Z,9.27
2019-05-23T14:00:40.495Z,6.40
2019-05-23T14:03:42.913Z,9.27
2019-05-23T14:06:45.249Z,7.83
2019-05-23T14:09:47.576Z,7.93
2019-05-23T14:12:49.870Z,8.67
2019-05-23T14:15:52.226Z,8.03
2019-05-23T14:18:54.585Z,8.33
2019-05-23T14:21:56.880Z,12.03
2019-05-23T14:24:59.152Z,7.27
2019-05-23T14:28:04.584Z,9.23
2019-05-23T14:31:09.271Z,9.20
2019-05-23T14:34:13.929Z,10.80
2019-05-23T14:37:20.839Z,9.07
2019-05-23T14:40:23.173Z,8.97
2019-05-23T14:43:25.464Z,9.37
2019-05-23T14:46:29.806Z,9.40
2019-05-23T14:49:35.273Z,9.17
2019-05-23T14:52:39.351Z,9.47
2019-05-23T14:55:41.642Z,8.40
2019-05-23T14:58:43.934Z,8.07
2019-05-23T15:01:46.302Z,7.57
2019-05-23T15:04:48.568Z,9.00
2019-05-23T15:07:50.832Z,10.07
2019-05-23T15:10:53.131Z,7.77
2019-05-23T15:13:55.428Z,8.00
2019-05-23T15:16:57.689Z,7.90
2019-05-23T15:19:59.976Z,8.57
2019-05-23T15:23:02.282Z,8.33
2019-05-23T15:26:21.770Z,7.83
2019-05-23T15:29:06.946Z,9.87
2019-05-23T15:32:09.251Z,8.23
2019-05-23T15:35:11.539Z,8.40
2019-05-23T15:38:13.771Z,6.80
2019-05-23T15:41:16.032Z,7.23
2019-05-23T15:44:27.364Z,9.03
2019-05-23T15:47:20.758Z,11.00
2019-05-23T15:50:24.808Z,9.07
2019-05-23T15:53:39.435Z,11.07
2019-05-23T15:56:51.212Z,9.43
2019-05-23T15:59:58.343Z,7.10
2019-05-23T16:03:05.139Z,9.53
2019-05-23T16:06:09.089Z,7.27
2019-05-23T16:09:27.605Z,5.30
2019-05-23T16:12:14.316Z,7.37
2019-05-23T16:15:16.611Z,7.20
2019-05-23T16:18:18.959Z,10.40
2019-05-23T16:21:21.297Z,6.17
2019-05-23T16:27:37.910Z,8.67
2019-05-23T16:30:40.305Z,8.33
2019-05-23T16:33:42.675Z,10.27
2019-05-23T16:36:44.971Z,5.83
2019-05-23T16:39:49.721Z,6.57
2019-05-23T16:42:49.536Z,7.17
2019-05-23T16:45:51.848Z,10.30
2019-05-23T16:48:54.182Z,6.30
2019-05-23T16:51:56.432Z,8.70
2019-05-23T16:54:58.740Z,6.87
2019-05-23T16:58:05.689Z,7.87
2019-05-23T17:01:23.594Z,6.17
2019-05-23T17:04:20.418Z,7.07
2019-05-23T17:08:04.319Z,8.47
2019-05-23T17:11:12.808Z,5.47
2019-05-23T17:14:19.626Z,7.17
2019-05-23T17:17:43.496Z,7.23
2019-05-23T17:20:40.274Z,5.33
2019-05-23T17:23:48.097Z,6.33
2019-05-23T17:26:58.448Z,7.13
2019-05-23T17:30:08.549Z,5.50
2019-05-23T17:33:07.974Z,5.87
2019-05-23T17:36:10.268Z,7.40
2019-05-23T17:39:12.590Z,7.57
2019-05-23T17:42:14.914Z,5.67
2019-05-23T17:45:17.223Z,7.60
2019-05-23T17:48:19.498Z,4.67
2019-05-23T17:51:21.857Z,5.50
2019-05-23T17:54:24.254Z,5.67
2019-05-23T17:57:26.510Z,7.03
2019-05-23T18:00:33.377Z,7.90
2019-05-23T18:03:35.664Z,8.80
2019-05-23T18:06:37.931Z,5.80
2019-05-23T18:09:40.246Z,8.67
2019-05-23T18:12:42.487Z,6.83
2019-05-23T18:15:44.827Z,8.20
2019-05-23T18:18:47.123Z,8.87
2019-05-23T18:21:49.409Z,6.13
2019-05-23T18:24:51.875Z,5.73
2019-05-23T18:27:54.147Z,5.33
2019-05-23T18:31:00.392Z,7.80
2019-05-23T18:34:03.351Z,5.00
2019-05-23T18:37:05.911Z,5.20
2019-05-23T18:40:08.211Z,6.27
2019-05-23T18:43:10.626Z,6.33
2019-05-23T18:46:16.545Z,5.60
2019-05-23T18:49:18.892Z,5.77
2019-05-23T18:52:21.140Z,8.17
2019-05-23T18:55:23.483Z,9.93
2019-05-23T18:58:25.706Z,14.73
2019-05-23T19:01:28.023Z,8.43
2019-05-23T19:04:30.287Z,9.20
2019-05-23T19:07:32.629Z,4.97
2019-05-23T19:10:34.953Z,5.60
2019-05-23T19:13:37.322Z,7.27
2019-05-23T19:16:39.619Z,6.00
2019-05-23T19:19:41.903Z,5.03
2019-05-23T19:22:44.241Z,6.37
2019-05-23T19:25:46.389Z,6.10
2019-05-23T19:28:48.716Z,7.57
2019-05-23T19:31:51.041Z,7.57
2019-05-23T19:34:53.584Z,4.57
2019-05-23T19:37:55.847Z,6.07
2019-05-23T19:40:58.141Z,7.03
2019-05-23T19:44:00.387Z,6.83
2019-05-23T19:47:02.720Z,5.57
2019-05-23T19:50:05.063Z,6.77
2019-05-23T19:53:07.352Z,6.60
2019-05-23T19:56:09.680Z,5.43
2019-05-23T19:59:12.033Z,5.63
2019-05-23T20:02:18.903Z,8.77
2019-05-23T20:05:24.144Z,6.43
2019-05-23T20:08:26.457Z,5.93
2019-05-23T20:11:28.721Z,6.77
2019-05-23T20:14:31.020Z,7.90
2019-05-23T20:17:33.451Z,6.27
2019-05-23T20:20:36.047Z,6.13
2019-05-23T20:23:38.396Z,4.93
2019-05-23T20:26:40.682Z,6.47
2019-05-23T20:29:42.943Z,6.13
2019-05-23T20:32:45.171Z,7.67
2019-05-23T20:35:47.660Z,6.33
2019-05-23T20:38:49.877Z,6.70
2019-05-23T20:41:52.258Z,7.97
2019-05-23T20:44:54.531Z,6.07
2019-05-23T20:47:56.779Z,11.60
2019-05-23T20:50:59.113Z,10.90
2019-05-23T20:54:01.394Z,11.57
2019-05-23T20:57:03.668Z,11.77
2019-05-23T21:00:06.699Z,8.87
2019-05-23T21:03:08.942Z,12.23
2019-05-23T21:06:11.250Z,13.33
2019-05-23T21:09:15.774Z,19.67
2019-05-23T21:12:29.620Z,28.43
2019-05-23T21:15:18.057Z,14.83
2019-05-23T21:18:20.269Z,10.83
2019-05-23T21:21:22.526Z,10.37
2019-05-23T21:24:24.902Z,10.90
2019-05-23T21:27:27.192Z,7.57
2019-05-23T21:30:29.599Z,8.90
2019-05-23T21:33:31.986Z,8.17
2019-05-23T21:36:34.332Z,9.33
2019-05-23T21:39:36.603Z,7.30
2019-05-23T21:42:47.903Z,9.10
2019-05-23T21:45:41.207Z,7.03
2019-05-23T21:48:43.497Z,8.43
2019-05-23T21:51:45.767Z,6.73
2019-05-23T21:54:48.062Z,6.70
2019-05-23T21:57:50.304Z,7.07
2019-05-23T22:01:13.531Z,7.47
2019-05-23T22:04:21.446Z,6.67
2019-05-23T22:07:23.777Z,6.70
2019-05-23T22:10:26.241Z,7.67
2019-05-23T22:13:28.851Z,28.33
2019-05-23T22:16:31.175Z,24.80
2019-05-23T22:19:33.570Z,34.27
2019-05-23T22:22:35.796Z,11.80
2019-05-23T22:25:38.063Z,11.80
2019-05-23T22:28:40.347Z,16.77
2019-05-23T22:31:42.699Z,21.00
2019-05-23T22:34:53.381Z,32.73
2019-05-23T22:37:55.655Z,22.00
2019-05-23T22:40:57.913Z,11.73
2019-05-23T22:44:00.167Z,11.73
2019-05-23T22:47:02.455Z,25.13
2019-05-23T22:50:04.891Z,29.93
2019-05-23T22:53:07.125Z,12.23
2019-05-23T22:56:09.348Z,7.20
2019-05-23T22:59:11.625Z,7.10
2019-05-23T23:02:14.845Z,7.87
2019-05-23T23:05:17.148Z,5.17
2019-05-23T23:08:19.513Z,6.13
2019-05-23T23:11:21.839Z,5.60
2019-05-23T23:14:24.090Z,6.23
2019-05-23T23:17:26.403Z,5.70
2019-05-23T23:20:28.693Z,5.83
2019-05-23T23:23:30.973Z,6.53
2019-05-23T23:26:33.267Z,5.97
2019-05-23T23:29:35.500Z,5.57
2019-05-23T23:32:37.751Z,6.23
2019-05-23T23:35:40.129Z,7.73
2019-05-23T23:38:42.437Z,6.30
2019-05-23T23:41:44.707Z,6.33
2019-05-23T23:44:46.457Z,5.40
2019-05-23T23:47:54.303Z,6.60
2019-05-23T23:51:02.113Z,6.73
2019-05-23T23:54:10.103Z,7.60
2019-05-23T23:57:18.020Z,7.33
